Weather at Washington Dulles International Airport

Public forecast

Using degrees Fahrenheit for public forecast. Weather courtesy of forecast.io.

Current aviation weather report (METAR) for Washington Dulles International Airport

Retrieved 2021/07/28 21:52 UTC (49 minutes ago):

KIAD 282152Z 02005G15KT 10SM SCT070 SCT090 33/16 A2995 RMK AO2 SLP138 T03280161

Aviation forecast (TAF) for Washington Dulles International Airport

Retrieved 2021/07/28 18:36 UTC (4 hours ago):

TAF KIAD 281735Z 2818/2924 36011KT P6SM FEW060 FM282200 02007KT P6SM VCTS SCT050CB FM290200 VRB03KT P6SM FEW050 SCT140 FM290900 VRB03KT P6SM SCT008 BKN200 FM291400 22006KT P6SM SCT050 BKN090